sensor_id;sensor_type;location;lat;lon;timestamp;P1;durP1;ratioP1;P2;durP2;ratioP2
74469;SDS011;62918;55.706;37.816;2023-04-06T00:00:16;6.25;;;3.67;;
74469;SDS011;62918;55.706;37.816;2023-04-06T00:00:48;5.10;;;3.38;;
74469;SDS011;62918;55.706;37.816;2023-04-06T00:01:18;5.00;;;3.55;;
74469;SDS011;62918;55.706;37.816;2023-04-06T00:01:49;6.65;;;3.15;;
74469;SDS011;62918;55.706;37.816;2023-04-06T00:02:20;5.18;;;3.45;;
74469;SDS011;62918;55.706;37.816;2023-04-06T00:02:51;6.72;;;4.07;;
74469;SDS011;62918;55.706;37.816;2023-04-06T00:03:22;5.78;;;3.08;;
74469;SDS011;62918;55.706;37.816;2023-04-06T00:03:53;7.43;;;3.33;;
74469;SDS011;62918;55.706;37.816;2023-04-06T00:04:23;6.07;;;3.90;;
74469;SDS011;62918;55.706;37.816;2023-04-06T00:04:54;8.15;;;4.13;;
74469;SDS011;62918;55.706;37.816;2023-04-06T00:05:25;5.53;;;3.55;;
74469;SDS011;62918;55.706;37.816;2023-04-06T00:05:57;7.03;;;3.70;;
74469;SDS011;62918;55.706;37.816;2023-04-06T00:06:28;5.50;;;3.63;;
74469;SDS011;62918;55.706;37.816;2023-04-06T00:06:59;6.35;;;3.85;;
74469;SDS011;62918;55.706;37.816;2023-04-06T00:07:29;5.43;;;3.80;;
74469;SDS011;62918;55.706;37.816;2023-04-06T00:08:00;4.88;;;2.90;;
74469;SDS011;62918;55.706;37.816;2023-04-06T00:08:31;6.95;;;3.83;;
74469;SDS011;62918;55.706;37.816;2023-04-06T00:09:01;7.25;;;3.58;;
74469;SDS011;62918;55.706;37.816;2023-04-06T00:09:32;8.40;;;3.63;;
74469;SDS011;62918;55.706;37.816;2023-04-06T00:10:03;5.47;;;3.58;;
74469;SDS011;62918;55.706;37.816;2023-04-06T00:10:34;6.10;;;3.92;;
74469;SDS011;62918;55.706;37.816;2023-04-06T00:11:05;6.03;;;3.53;;
74469;SDS011;62918;55.706;37.816;2023-04-06T00:11:36;6.75;;;3.63;;
74469;SDS011;62918;55.706;37.816;2023-04-06T00:12:06;6.22;;;3.75;;
74469;SDS011;62918;55.706;37.816;2023-04-06T00:12:37;5.90;;;3.70;;
74469;SDS011;62918;55.706;37.816;2023-04-06T00:13:07;5.75;;;3.80;;
74469;SDS011;62918;55.706;37.816;2023-04-06T00:13:38;6.65;;;3.60;;
74469;SDS011;62918;55.706;37.816;2023-04-06T00:14:09;6.50;;;4.03;;
74469;SDS011;62918;55.706;37.816;2023-04-06T00:14:40;5.68;;;3.75;;
74469;SDS011;62918;55.706;37.816;2023-04-06T00:15:10;5.63;;;3.72;;
74469;SDS011;62918;55.706;37.816;2023-04-06T00:15:41;7.25;;;3.80;;
74469;SDS011;62918;55.706;37.816;2023-04-06T00:16:12;5.65;;;3.67;;
74469;SDS011;62918;55.706;37.816;2023-04-06T00:16:42;5.93;;;3.60;;
74469;SDS011;62918;55.706;37.816;2023-04-06T00:17:13;5.45;;;3.13;;
74469;SDS011;62918;55.706;37.816;2023-04-06T00:17:44;6.75;;;3.55;;
74469;SDS011;62918;55.706;37.816;2023-04-06T00:18:14;7.05;;;3.90;;
74469;SDS011;62918;55.706;37.816;2023-04-06T00:18:45;5.57;;;3.50;;
74469;SDS011;62918;55.706;37.816;2023-04-06T00:19:16;6.60;;;4.15;;
74469;SDS011;62918;55.706;37.816;2023-04-06T00:19:46;5.97;;;3.65;;
74469;SDS011;62918;55.706;37.816;2023-04-06T00:20:17;6.32;;;3.70;;
74469;SDS011;62918;55.706;37.816;2023-04-06T00:20:48;6.88;;;3.70;;
74469;SDS011;62918;55.706;37.816;2023-04-06T00:21:21;7.95;;;3.90;;
74469;SDS011;62918;55.706;37.816;2023-04-06T00:21:51;5.75;;;3.75;;
74469;SDS011;62918;55.706;37.816;2023-04-06T00:22:22;8.32;;;4.10;;
74469;SDS011;62918;55.706;37.816;2023-04-06T00:22:52;6.13;;;3.65;;
74469;SDS011;62918;55.706;37.816;2023-04-06T00:23:24;5.55;;;3.42;;
74469;SDS011;62918;55.706;37.816;2023-04-06T00:23:54;4.85;;;3.50;;
74469;SDS011;62918;55.706;37.816;2023-04-06T00:24:25;5.53;;;3.63;;
74469;SDS011;62918;55.706;37.816;2023-04-06T00:24:56;6.03;;;3.55;;
74469;SDS011;62918;55.706;37.816;2023-04-06T00:25:27;6.63;;;3.67;;
74469;SDS011;62918;55.706;37.816;2023-04-06T00:25:57;7.00;;;3.72;;
74469;SDS011;62918;55.706;37.816;2023-04-06T00:26:28;5.78;;;3.25;;
74469;SDS011;62918;55.706;37.816;2023-04-06T00:26:59;7.90;;;3.65;;
74469;SDS011;62918;55.706;37.816;2023-04-06T00:27:29;5.53;;;3.55;;
74469;SDS011;62918;55.706;37.816;2023-04-06T00:28:00;5.18;;;3.50;;
74469;SDS011;62918;55.706;37.816;2023-04-06T00:28:31;5.78;;;3.40;;
74469;SDS011;62918;55.706;37.816;2023-04-06T00:29:02;6.15;;;4.22;;
74469;SDS011;62918;55.706;37.816;2023-04-06T00:29:32;5.80;;;3.80;;
74469;SDS011;62918;55.706;37.816;2023-04-06T00:30:03;5.38;;;3.50;;
74469;SDS011;62918;55.706;37.816;2023-04-06T00:30:35;6.82;;;3.90;;
74469;SDS011;62918;55.706;37.816;2023-04-06T00:31:06;5.60;;;3.58;;
74469;SDS011;62918;55.706;37.816;2023-04-06T00:31:37;6.05;;;3.60;;
74469;SDS011;62918;55.706;37.816;2023-04-06T00:32:07;5.53;;;3.45;;
74469;SDS011;62918;55.706;37.816;2023-04-06T00:32:38;6.10;;;4.00;;
74469;SDS011;62918;55.706;37.816;2023-04-06T00:33:09;5.82;;;3.47;;
74469;SDS011;62918;55.706;37.816;2023-04-06T00:33:40;6.60;;;4.38;;
74469;SDS011;62918;55.706;37.816;2023-04-06T00:34:10;5.10;;;3.40;;
74469;SDS011;62918;55.706;37.816;2023-04-06T00:34:41;6.28;;;3.63;;
74469;SDS011;62918;55.706;37.816;2023-04-06T00:35:12;5.80;;;3.60;;
74469;SDS011;62918;55.706;37.816;2023-04-06T00:35:42;6.97;;;3.63;;
74469;SDS011;62918;55.706;37.816;2023-04-06T00:36:13;6.57;;;3.88;;
74469;SDS011;62918;55.706;37.816;2023-04-06T00:36:43;5.30;;;4.15;;
74469;SDS011;62918;55.706;37.816;2023-04-06T00:37:14;6.00;;;3.65;;
74469;SDS011;62918;55.706;37.816;2023-04-06T00:37:46;8.88;;;3.60;;
74469;SDS011;62918;55.706;37.816;2023-04-06T00:38:18;6.30;;;3.42;;
74469;SDS011;62918;55.706;37.816;2023-04-06T00:38:49;5.18;;;3.70;;
74469;SDS011;62918;55.706;37.816;2023-04-06T00:39:20;6.45;;;3.85;;
74469;SDS011;62918;55.706;37.816;2023-04-06T00:39:50;6.40;;;3.80;;
74469;SDS011;62918;55.706;37.816;2023-04-06T00:40:24;6.63;;;3.50;;
74469;SDS011;62918;55.706;37.816;2023-04-06T00:40:54;4.55;;;3.33;;
74469;SDS011;62918;55.706;37.816;2023-04-06T00:41:25;7.88;;;4.15;;
74469;SDS011;62918;55.706;37.816;2023-04-06T00:41:56;6.75;;;3.65;;
74469;SDS011;62918;55.706;37.816;2023-04-06T00:42:27;6.82;;;3.58;;
74469;SDS011;62918;55.706;37.816;2023-04-06T00:42:58;6.80;;;3.90;;
74469;SDS011;62918;55.706;37.816;2023-04-06T00:43:28;8.63;;;3.50;;
74469;SDS011;62918;55.706;37.816;2023-04-06T00:43:59;8.85;;;3.90;;
74469;SDS011;62918;55.706;37.816;2023-04-06T00:44:29;6.35;;;3.58;;
74469;SDS011;62918;55.706;37.816;2023-04-06T00:45:02;6.03;;;3.63;;
74469;SDS011;62918;55.706;37.816;2023-04-06T00:45:34;6.97;;;4.10;;
74469;SDS011;62918;55.706;37.816;2023-04-06T00:46:04;6.35;;;3.85;;
74469;SDS011;62918;55.706;37.816;2023-04-06T00:46:35;6.82;;;3.88;;
74469;SDS011;62918;55.706;37.816;2023-04-06T00:47:07;7.10;;;3.60;;
74469;SDS011;62918;55.706;37.816;2023-04-06T00:47:38;6.72;;;3.72;;
74469;SDS011;62918;55.706;37.816;2023-04-06T00:48:08;6.88;;;3.80;;
74469;SDS011;62918;55.706;37.816;2023-04-06T00:48:39;7.03;;;3.38;;
74469;SDS011;62918;55.706;37.816;2023-04-06T00:49:11;6.05;;;3.83;;
74469;SDS011;62918;55.706;37.816;2023-04-06T00:49:41;7.95;;;4.35;;
74469;SDS011;62918;55.706;37.816;2023-04-06T00:50:12;6.55;;;4.38;;
74469;SDS011;62918;55.706;37.816;2023-04-06T00:50:42;8.25;;;3.70;;
74469;SDS011;62918;55.706;37.816;2023-04-06T00:51:13;6.75;;;3.75;;
74469;SDS011;62918;55.706;37.816;2023-04-06T00:51:44;7.32;;;4.15;;
74469;SDS011;62918;55.706;37.816;2023-04-06T00:52:15;7.32;;;3.75;;
74469;SDS011;62918;55.706;37.816;2023-04-06T00:52:46;6.95;;;3.92;;
74469;SDS011;62918;55.706;37.816;2023-04-06T00:53:16;4.97;;;3.63;;
74469;SDS011;62918;55.706;37.816;2023-04-06T00:53:47;5.18;;;3.58;;
74469;SDS011;62918;55.706;37.816;2023-04-06T00:54:18;6.93;;;3.97;;
74469;SDS011;62918;55.706;37.816;2023-04-06T00:54:49;6.95;;;3.58;;
74469;SDS011;62918;55.706;37.816;2023-04-06T00:55:20;9.38;;;4.32;;
74469;SDS011;62918;55.706;37.816;2023-04-06T00:55:51;5.53;;;3.65;;
74469;SDS011;62918;55.706;37.816;2023-04-06T00:56:22;6.55;;;4.38;;
74469;SDS011;62918;55.706;37.816;2023-04-06T00:56:53;5.40;;;3.95;;
74469;SDS011;62918;55.706;37.816;2023-04-06T00:57:25;6.50;;;4.30;;
74469;SDS011;62918;55.706;37.816;2023-04-06T00:57:56;6.47;;;4.43;;
74469;SDS011;62918;55.706;37.816;2023-04-06T00:58:28;6.28;;;4.45;;
74469;SDS011;62918;55.706;37.816;2023-04-06T00:58:59;6.93;;;3.85;;
74469;SDS011;62918;55.706;37.816;2023-04-06T00:59:30;7.57;;;3.67;;
74469;SDS011;62918;55.706;37.816;2023-04-06T01:00:01;7.15;;;3.70;;
74469;SDS011;62918;55.706;37.816;2023-04-06T01:00:33;7.75;;;3.83;;
74469;SDS011;62918;55.706;37.816;2023-04-06T01:01:04;7.57;;;3.88;;
74469;SDS011;62918;55.706;37.816;2023-04-06T01:01:35;5.85;;;4.40;;
74469;SDS011;62918;55.706;37.816;2023-04-06T01:02:06;6.68;;;4.03;;
74469;SDS011;62918;55.706;37.816;2023-04-06T01:02:37;8.82;;;4.35;;
74469;SDS011;62918;55.706;37.816;2023-04-06T01:03:08;7.03;;;4.45;;
74469;SDS011;62918;55.706;37.816;2023-04-06T01:03:38;5.63;;;3.95;;
74469;SDS011;62918;55.706;37.816;2023-04-06T01:04:09;5.05;;;3.47;;
74469;SDS011;62918;55.706;37.816;2023-04-06T01:04:40;5.00;;;3.70;;
74469;SDS011;62918;55.706;37.816;2023-04-06T01:05:11;6.97;;;3.95;;
74469;SDS011;62918;55.706;37.816;2023-04-06T01:05:41;7.53;;;4.28;;
74469;SDS011;62918;55.706;37.816;2023-04-06T01:06:12;7.07;;;3.88;;
74469;SDS011;62918;55.706;37.816;2023-04-06T01:06:43;6.65;;;4.28;;
74469;SDS011;62918;55.706;37.816;2023-04-06T01:07:13;6.25;;;3.95;;
74469;SDS011;62918;55.706;37.816;2023-04-06T01:07:45;6.53;;;4.18;;
74469;SDS011;62918;55.706;37.816;2023-04-06T01:08:16;5.63;;;4.05;;
74469;SDS011;62918;55.706;37.816;2023-04-06T01:08:46;6.13;;;4.45;;
74469;SDS011;62918;55.706;37.816;2023-04-06T01:09:17;6.50;;;4.07;;
74469;SDS011;62918;55.706;37.816;2023-04-06T01:09:47;6.60;;;3.78;;
74469;SDS011;62918;55.706;37.816;2023-04-06T01:10:24;6.28;;;3.92;;
74469;SDS011;62918;55.706;37.816;2023-04-06T01:10:56;6.30;;;4.00;;
74469;SDS011;62918;55.706;37.816;2023-04-06T01:11:30;6.07;;;3.88;;
74469;SDS011;62918;55.706;37.816;2023-04-06T01:12:01;6.53;;;4.15;;
74469;SDS011;62918;55.706;37.816;2023-04-06T01:12:33;5.63;;;3.80;;
74469;SDS011;62918;55.706;37.816;2023-04-06T01:13:04;6.43;;;4.30;;
74469;SDS011;62918;55.706;37.816;2023-04-06T01:13:34;6.30;;;4.05;;
74469;SDS011;62918;55.706;37.816;2023-04-06T01:14:05;8.27;;;4.60;;
74469;SDS011;62918;55.706;37.816;2023-04-06T01:14:36;6.50;;;4.25;;
74469;SDS011;62918;55.706;37.816;2023-04-06T01:15:06;7.97;;;4.10;;
74469;SDS011;62918;55.706;37.816;2023-04-06T01:15:38;9.65;;;4.85;;
74469;SDS011;62918;55.706;37.816;2023-04-06T01:16:09;6.47;;;3.90;;
74469;SDS011;62918;55.706;37.816;2023-04-06T01:16:40;8.55;;;4.20;;
74469;SDS011;62918;55.706;37.816;2023-04-06T01:17:11;7.38;;;4.13;;
74469;SDS011;62918;55.706;37.816;2023-04-06T01:17:42;6.43;;;4.30;;
74469;SDS011;62918;55.706;37.816;2023-04-06T01:18:12;8.32;;;4.68;;
74469;SDS011;62918;55.706;37.816;2023-04-06T01:18:43;6.60;;;4.03;;
74469;SDS011;62918;55.706;37.816;2023-04-06T01:19:13;6.82;;;4.18;;
74469;SDS011;62918;55.706;37.816;2023-04-06T01:19:44;7.20;;;3.95;;
74469;SDS011;62918;55.706;37.816;2023-04-06T01:20:15;6.35;;;3.58;;
74469;SDS011;62918;55.706;37.816;2023-04-06T01:20:46;7.47;;;4.05;;
74469;SDS011;62918;55.706;37.816;2023-04-06T01:21:17;7.45;;;4.15;;
74469;SDS011;62918;55.706;37.816;2023-04-06T01:21:47;8.48;;;4.05;;
74469;SDS011;62918;55.706;37.816;2023-04-06T01:22:20;7.13;;;4.20;;
74469;SDS011;62918;55.706;37.816;2023-04-06T01:22:51;7.50;;;4.53;;
74469;SDS011;62918;55.706;37.816;2023-04-06T01:23:21;6.45;;;4.35;;
74469;SDS011;62918;55.706;37.816;2023-04-06T01:23:52;5.90;;;4.25;;
74469;SDS011;62918;55.706;37.816;2023-04-06T01:24:23;5.93;;;3.83;;
74469;SDS011;62918;55.706;37.816;2023-04-06T01:24:53;6.05;;;4.15;;
74469;SDS011;62918;55.706;37.816;2023-04-06T01:25:24;6.95;;;4.38;;
74469;SDS011;62918;55.706;37.816;2023-04-06T01:25:55;6.88;;;4.13;;
74469;SDS011;62918;55.706;37.816;2023-04-06T01:26:25;6.28;;;4.07;;
74469;SDS011;62918;55.706;37.816;2023-04-06T01:26:57;7.95;;;4.03;;
74469;SDS011;62918;55.706;37.816;2023-04-06T01:27:27;6.20;;;4.00;;
74469;SDS011;62918;55.706;37.816;2023-04-06T01:27:59;7.93;;;4.85;;
74469;SDS011;62918;55.706;37.816;2023-04-06T01:28:30;9.00;;;4.20;;
74469;SDS011;62918;55.706;37.816;2023-04-06T01:29:01;6.95;;;4.25;;
74469;SDS011;62918;55.706;37.816;2023-04-06T01:29:32;8.50;;;4.00;;
74469;SDS011;62918;55.706;37.816;2023-04-06T01:30:24;7.50;;;4.53;;
74469;SDS011;62918;55.706;37.816;2023-04-06T01:30:54;5.93;;;3.65;;
74469;SDS011;62918;55.706;37.816;2023-04-06T01:31:28;8.55;;;4.30;;
74469;SDS011;62918;55.706;37.816;2023-04-06T01:32:02;6.90;;;3.95;;
74469;SDS011;62918;55.706;37.816;2023-04-06T01:32:34;6.38;;;4.25;;
74469;SDS011;62918;55.706;37.816;2023-04-06T01:33:38;5.57;;;3.90;;
74469;SDS011;62918;55.706;37.816;2023-04-06T01:34:12;6.38;;;4.03;;
74469;SDS011;62918;55.706;37.816;2023-04-06T01:34:43;7.35;;;4.10;;
74469;SDS011;62918;55.706;37.816;2023-04-06T01:35:13;7.28;;;4.70;;
74469;SDS011;62918;55.706;37.816;2023-04-06T01:35:44;6.70;;;4.85;;
74469;SDS011;62918;55.706;37.816;2023-04-06T01:36:18;9.88;;;4.80;;
74469;SDS011;62918;55.706;37.816;2023-04-06T01:36:52;6.68;;;4.70;;
74469;SDS011;62918;55.706;37.816;2023-04-06T01:37:22;7.03;;;4.28;;
74469;SDS011;62918;55.706;37.816;2023-04-06T01:37:53;6.93;;;4.65;;
74469;SDS011;62918;55.706;37.816;2023-04-06T01:38:24;8.18;;;5.68;;
74469;SDS011;62918;55.706;37.816;2023-04-06T01:38:56;7.75;;;5.13;;
74469;SDS011;62918;55.706;37.816;2023-04-06T01:39:27;8.88;;;5.63;;
74469;SDS011;62918;55.706;37.816;2023-04-06T01:39:57;6.80;;;4.95;;
74469;SDS011;62918;55.706;37.816;2023-04-06T01:40:29;10.25;;;5.18;;
74469;SDS011;62918;55.706;37.816;2023-04-06T01:40:59;7.85;;;4.28;;
74469;SDS011;62918;55.706;37.816;2023-04-06T01:41:30;7.80;;;4.80;;
74469;SDS011;62918;55.706;37.816;2023-04-06T01:42:01;7.97;;;5.20;;
74469;SDS011;62918;55.706;37.816;2023-04-06T01:42:31;7.30;;;4.95;;
74469;SDS011;62918;55.706;37.816;2023-04-06T01:43:02;9.95;;;5.28;;
74469;SDS011;62918;55.706;37.816;2023-04-06T01:43:33;7.25;;;4.70;;
74469;SDS011;62918;55.706;37.816;2023-04-06T01:44:04;7.22;;;4.63;;
74469;SDS011;62918;55.706;37.816;2023-04-06T01:44:34;8.25;;;4.93;;
74469;SDS011;62918;55.706;37.816;2023-04-06T01:45:05;7.45;;;4.72;;
74469;SDS011;62918;55.706;37.816;2023-04-06T01:45:36;9.45;;;5.38;;
74469;SDS011;62918;55.706;37.816;2023-04-06T01:46:07;7.43;;;4.38;;
74469;SDS011;62918;55.706;37.816;2023-04-06T01:46:37;7.40;;;4.72;;
74469;SDS011;62918;55.706;37.816;2023-04-06T01:47:08;7.40;;;4.40;;
74469;SDS011;62918;55.706;37.816;2023-04-06T01:47:39;8.32;;;4.40;;
74469;SDS011;62918;55.706;37.816;2023-04-06T01:48:09;9.23;;;4.35;;
74469;SDS011;62918;55.706;37.816;2023-04-06T01:48:40;6.57;;;4.72;;
74469;SDS011;62918;55.706;37.816;2023-04-06T01:49:11;7.55;;;4.65;;
74469;SDS011;62918;55.706;37.816;2023-04-06T01:49:43;8.00;;;4.53;;
74469;SDS011;62918;55.706;37.816;2023-04-06T01:50:13;7.80;;;4.32;;
74469;SDS011;62918;55.706;37.816;2023-04-06T01:50:44;7.60;;;3.75;;
74469;SDS011;62918;55.706;37.816;2023-04-06T01:51:15;7.70;;;4.65;;
74469;SDS011;62918;55.706;37.816;2023-04-06T01:51:46;8.18;;;4.65;;
74469;SDS011;62918;55.706;37.816;2023-04-06T01:52:16;9.38;;;4.70;;
74469;SDS011;62918;55.706;37.816;2023-04-06T01:52:48;6.75;;;4.43;;
74469;SDS011;62918;55.706;37.816;2023-04-06T01:53:18;7.90;;;4.63;;
74469;SDS011;62918;55.706;37.816;2023-04-06T01:53:49;6.57;;;4.32;;
74469;SDS011;62918;55.706;37.816;2023-04-06T01:54:20;8.27;;;4.30;;
74469;SDS011;62918;55.706;37.816;2023-04-06T01:54:51;8.43;;;5.07;;
74469;SDS011;62918;55.706;37.816;2023-04-06T01:55:22;8.50;;;5.03;;
74469;SDS011;62918;55.706;37.816;2023-04-06T01:55:53;7.70;;;5.00;;
74469;SDS011;62918;55.706;37.816;2023-04-06T01:56:24;6.53;;;4.25;;
74469;SDS011;62918;55.706;37.816;2023-04-06T01:56:58;8.27;;;4.45;;
74469;SDS011;62918;55.706;37.816;2023-04-06T01:57:28;7.68;;;4.70;;
74469;SDS011;62918;55.706;37.816;2023-04-06T01:57:59;7.15;;;4.30;;
74469;SDS011;62918;55.706;37.816;2023-04-06T01:58:30;8.52;;;4.93;;
74469;SDS011;62918;55.706;37.816;2023-04-06T01:59:01;7.50;;;4.57;;
74469;SDS011;62918;55.706;37.816;2023-04-06T01:59:32;8.45;;;4.82;;
74469;SDS011;62918;55.706;37.816;2023-04-06T02:00:02;9.00;;;4.32;;
74469;SDS011;62918;55.706;37.816;2023-04-06T02:00:34;6.45;;;4.43;;
74469;SDS011;62918;55.706;37.816;2023-04-06T02:01:05;6.82;;;4.32;;
74469;SDS011;62918;55.706;37.816;2023-04-06T02:01:36;7.38;;;4.43;;
74469;SDS011;62918;55.706;37.816;2023-04-06T02:02:06;6.55;;;4.78;;
74469;SDS011;62918;55.706;37.816;2023-04-06T02:02:37;9.18;;;4.65;;
74469;SDS011;62918;55.706;37.816;2023-04-06T02:03:08;6.65;;;4.47;;
74469;SDS011;62918;55.706;37.816;2023-04-06T02:03:38;8.50;;;4.85;;
74469;SDS011;62918;55.706;37.816;2023-04-06T02:04:09;8.13;;;4.63;;
74469;SDS011;62918;55.706;37.816;2023-04-06T02:04:40;9.13;;;5.00;;
74469;SDS011;62918;55.706;37.816;2023-04-06T02:05:11;7.20;;;4.72;;
74469;SDS011;62918;55.706;37.816;2023-04-06T02:05:41;8.50;;;4.50;;
74469;SDS011;62918;55.706;37.816;2023-04-06T02:06:12;7.03;;;4.45;;
74469;SDS011;62918;55.706;37.816;2023-04-06T02:06:42;7.25;;;4.35;;
74469;SDS011;62918;55.706;37.816;2023-04-06T02:07:13;8.00;;;4.30;;
74469;SDS011;62918;55.706;37.816;2023-04-06T02:07:44;7.57;;;4.97;;
74469;SDS011;62918;55.706;37.816;2023-04-06T02:08:15;7.97;;;5.32;;
74469;SDS011;62918;55.706;37.816;2023-04-06T02:08:45;9.52;;;4.28;;
74469;SDS011;62918;55.706;37.816;2023-04-06T02:09:16;7.00;;;4.65;;
74469;SDS011;62918;55.706;37.816;2023-04-06T02:09:47;8.98;;;5.05;;
74469;SDS011;62918;55.706;37.816;2023-04-06T02:10:18;6.63;;;4.60;;
74469;SDS011;62918;55.706;37.816;2023-04-06T02:10:48;11.50;;;4.28;;
74469;SDS011;62918;55.706;37.816;2023-04-06T02:11:19;6.10;;;4.30;;
74469;SDS011;62918;55.706;37.816;2023-04-06T02:11:50;6.90;;;4.35;;
74469;SDS011;62918;55.706;37.816;2023-04-06T02:12:20;9.95;;;5.03;;
74469;SDS011;62918;55.706;37.816;2023-04-06T02:12:51;8.77;;;4.57;;
74469;SDS011;62918;55.706;37.816;2023-04-06T02:13:22;7.43;;;5.00;;
74469;SDS011;62918;55.706;37.816;2023-04-06T02:13:53;7.95;;;5.00;;
74469;SDS011;62918;55.706;37.816;2023-04-06T02:14:44;7.05;;;4.47;;
74469;SDS011;62918;55.706;37.816;2023-04-06T02:15:15;8.23;;;4.97;;
74469;SDS011;62918;55.706;37.816;2023-04-06T02:15:46;8.35;;;5.15;;
74469;SDS011;62918;55.706;37.816;2023-04-06T02:16:16;6.78;;;5.13;;
74469;SDS011;62918;55.706;37.816;2023-04-06T02:16:47;7.45;;;5.55;;
74469;SDS011;62918;55.706;37.816;2023-04-06T02:17:18;7.90;;;5.75;;
74469;SDS011;62918;55.706;37.816;2023-04-06T02:17:48;8.02;;;5.05;;
74469;SDS011;62918;55.706;37.816;2023-04-06T02:18:19;7.22;;;4.22;;
74469;SDS011;62918;55.706;37.816;2023-04-06T02:18:50;5.78;;;4.40;;
74469;SDS011;62918;55.706;37.816;2023-04-06T02:19:21;7.25;;;5.45;;
74469;SDS011;62918;55.706;37.816;2023-04-06T02:19:52;8.70;;;5.35;;
74469;SDS011;62918;55.706;37.816;2023-04-06T02:20:23;6.32;;;4.47;;
74469;SDS011;62918;55.706;37.816;2023-04-06T02:20:53;8.40;;;5.60;;
74469;SDS011;62918;55.706;37.816;2023-04-06T02:21:24;8.55;;;4.97;;
74469;SDS011;62918;55.706;37.816;2023-04-06T02:21:55;6.70;;;4.85;;
74469;SDS011;62918;55.706;37.816;2023-04-06T02:22:25;8.50;;;5.18;;
74469;SDS011;62918;55.706;37.816;2023-04-06T02:22:58;7.43;;;4.80;;
74469;SDS011;62918;55.706;37.816;2023-04-06T02:23:30;8.90;;;6.32;;
74469;SDS011;62918;55.706;37.816;2023-04-06T02:24:00;9.50;;;4.93;;
74469;SDS011;62918;55.706;37.816;2023-04-06T02:24:31;12.55;;;6.70;;
74469;SDS011;62918;55.706;37.816;2023-04-06T02:25:04;8.80;;;5.20;;
74469;SDS011;62918;55.706;37.816;2023-04-06T02:25:35;7.90;;;5.00;;
74469;SDS011;62918;55.706;37.816;2023-04-06T02:26:06;6.97;;;5.00;;
74469;SDS011;62918;55.706;37.816;2023-04-06T02:26:36;8.13;;;5.38;;
74469;SDS011;62918;55.706;37.816;2023-04-06T02:27:07;7.63;;;5.60;;
74469;SDS011;62918;55.706;37.816;2023-04-06T02:27:38;9.50;;;6.03;;
74469;SDS011;62918;55.706;37.816;2023-04-06T02:28:08;9.88;;;5.90;;
74469;SDS011;62918;55.706;37.816;2023-04-06T02:28:39;7.32;;;4.32;;
74469;SDS011;62918;55.706;37.816;2023-04-06T02:29:10;9.25;;;5.15;;
74469;SDS011;62918;55.706;37.816;2023-04-06T02:29:41;7.43;;;5.00;;
74469;SDS011;62918;55.706;37.816;2023-04-06T02:30:11;7.35;;;5.88;;
74469;SDS011;62918;55.706;37.816;2023-04-06T02:30:42;7.97;;;4.70;;
74469;SDS011;62918;55.706;37.816;2023-04-06T02:31:13;8.25;;;5.28;;
74469;SDS011;62918;55.706;37.816;2023-04-06T02:31:45;6.85;;;4.85;;
74469;SDS011;62918;55.706;37.816;2023-04-06T02:32:16;8.05;;;4.93;;
74469;SDS011;62918;55.706;37.816;2023-04-06T02:32:47;7.90;;;4.82;;
74469;SDS011;62918;55.706;37.816;2023-04-06T02:33:17;6.70;;;3.88;;
74469;SDS011;62918;55.706;37.816;2023-04-06T02:33:48;8.60;;;4.70;;
74469;SDS011;62918;55.706;37.816;2023-04-06T02:34:19;6.10;;;4.05;;
74469;SDS011;62918;55.706;37.816;2023-04-06T02:34:50;6.10;;;3.60;;
74469;SDS011;62918;55.706;37.816;2023-04-06T02:35:20;6.85;;;4.63;;
74469;SDS011;62918;55.706;37.816;2023-04-06T02:35:51;8.18;;;4.75;;
74469;SDS011;62918;55.706;37.816;2023-04-06T02:36:22;7.63;;;5.38;;
74469;SDS011;62918;55.706;37.816;2023-04-06T02:36:52;7.78;;;4.95;;
74469;SDS011;62918;55.706;37.816;2023-04-06T02:37:25;7.90;;;4.50;;
74469;SDS011;62918;55.706;37.816;2023-04-06T02:37:56;7.40;;;5.07;;
74469;SDS011;62918;55.706;37.816;2023-04-06T02:38:27;9.35;;;5.18;;
74469;SDS011;62918;55.706;37.816;2023-04-06T02:38:58;8.90;;;5.20;;
74469;SDS011;62918;55.706;37.816;2023-04-06T02:39:28;8.85;;;5.30;;
74469;SDS011;62918;55.706;37.816;2023-04-06T02:39:59;7.10;;;5.05;;
74469;SDS011;62918;55.706;37.816;2023-04-06T02:40:30;8.15;;;5.13;;
74469;SDS011;62918;55.706;37.816;2023-04-06T02:41:00;7.13;;;5.18;;
74469;SDS011;62918;55.706;37.816;2023-04-06T02:41:31;9.45;;;5.63;;
74469;SDS011;62918;55.706;37.816;2023-04-06T02:42:02;7.63;;;4.90;;
74469;SDS011;62918;55.706;37.816;2023-04-06T02:42:33;8.95;;;5.70;;
74469;SDS011;62918;55.706;37.816;2023-04-06T02:43:05;9.85;;;6.20;;
74469;SDS011;62918;55.706;37.816;2023-04-06T02:43:35;8.40;;;5.25;;
74469;SDS011;62918;55.706;37.816;2023-04-06T02:44:09;9.68;;;5.53;;
74469;SDS011;62918;55.706;37.816;2023-04-06T02:44:41;7.78;;;4.65;;
74469;SDS011;62918;55.706;37.816;2023-04-06T02:45:12;8.10;;;4.40;;
74469;SDS011;62918;55.706;37.816;2023-04-06T02:45:43;7.88;;;5.55;;
74469;SDS011;62918;55.706;37.816;2023-04-06T02:46:13;8.68;;;5.63;;
74469;SDS011;62918;55.706;37.816;2023-04-06T02:46:44;8.05;;;5.30;;
74469;SDS011;62918;55.706;37.816;2023-04-06T02:47:15;8.40;;;5.90;;
74469;SDS011;62918;55.706;37.816;2023-04-06T02:47:46;11.73;;;5.78;;
74469;SDS011;62918;55.706;37.816;2023-04-06T02:48:16;7.68;;;5.35;;
74469;SDS011;62918;55.706;37.816;2023-04-06T02:48:47;8.82;;;6.20;;
74469;SDS011;62918;55.706;37.816;2023-04-06T02:49:18;7.32;;;5.22;;
74469;SDS011;62918;55.706;37.816;2023-04-06T02:49:48;9.32;;;6.25;;
74469;SDS011;62918;55.706;37.816;2023-04-06T02:50:19;6.47;;;3.97;;
74469;SDS011;62918;55.706;37.816;2023-04-06T02:50:50;7.68;;;5.20;;
74469;SDS011;62918;55.706;37.816;2023-04-06T02:51:20;7.85;;;4.70;;
74469;SDS011;62918;55.706;37.816;2023-04-06T02:51:51;8.05;;;5.90;;
74469;SDS011;62918;55.706;37.816;2023-04-06T02:52:22;8.48;;;5.95;;
74469;SDS011;62918;55.706;37.816;2023-04-06T02:52:53;9.80;;;5.43;;
74469;SDS011;62918;55.706;37.816;2023-04-06T02:53:23;9.57;;;5.68;;
74469;SDS011;62918;55.706;37.816;2023-04-06T02:53:54;8.73;;;4.35;;
74469;SDS011;62918;55.706;37.816;2023-04-06T02:54:25;9.95;;;5.85;;
74469;SDS011;62918;55.706;37.816;2023-04-06T02:54:55;8.40;;;5.88;;
74469;SDS011;62918;55.706;37.816;2023-04-06T02:55:26;11.02;;;4.93;;
74469;SDS011;62918;55.706;37.816;2023-04-06T02:55:57;6.97;;;4.88;;
74469;SDS011;62918;55.706;37.816;2023-04-06T02:56:27;8.13;;;5.20;;
74469;SDS011;62918;55.706;37.816;2023-04-06T02:56:58;8.48;;;5.40;;
74469;SDS011;62918;55.706;37.816;2023-04-06T02:57:29;8.70;;;5.15;;
74469;SDS011;62918;55.706;37.816;2023-04-06T02:58:00;8.73;;;5.07;;
74469;SDS011;62918;55.706;37.816;2023-04-06T02:58:31;9.43;;;5.88;;
74469;SDS011;62918;55.706;37.816;2023-04-06T02:59:01;8.70;;;5.60;;
74469;SDS011;62918;55.706;37.816;2023-04-06T02:59:32;7.97;;;5.13;;
74469;SDS011;62918;55.706;37.816;2023-04-06T03:00:03;6.90;;;5.55;;
74469;SDS011;62918;55.706;37.816;2023-04-06T03:00:34;8.02;;;5.78;;
74469;SDS011;62918;55.706;37.816;2023-04-06T03:01:06;9.07;;;5.93;;
74469;SDS011;62918;55.706;37.816;2023-04-06T03:01:36;9.07;;;5.88;;
74469;SDS011;62918;55.706;37.816;2023-04-06T03:02:07;12.05;;;6.70;;
74469;SDS011;62918;55.706;37.816;2023-04-06T03:02:38;9.32;;;5.55;;
74469;SDS011;62918;55.706;37.816;2023-04-06T03:03:08;7.40;;;5.00;;
74469;SDS011;62918;55.706;37.816;2023-04-06T03:03:39;10.35;;;5.50;;
74469;SDS011;62918;55.706;37.816;2023-04-06T03:04:10;8.27;;;5.28;;
74469;SDS011;62918;55.706;37.816;2023-04-06T03:04:41;8.65;;;4.80;;